Time;durP1;ratioP1;P1;durP2;ratioP2;P2;SDS_P1;SDS_P2;PMS_P1;PMS_P2;Temp;Humidity;BMP_temperature;BMP_pressure;BME280_temperature;BME280_humidity;BME280_pressure;Samples;Min_cycle;Max_cycle;Signal;HPM_P1;HPM_P2
2021/11/11 00:00:29;;;;;;;25.05;14.70;;;;;;;;;;5018831;28;20194;-78
2021/11/11 00:02:57;;;;;;;20.08;13.65;;;;;;;;;;5024514;28;20178;-78
2021/11/11 00:05:23;;;;;;;24.23;14.20;;;;;;;;;;5022681;28;20190;-78
2021/11/11 00:07:50;;;;;;;21.42;13.73;;;;;;;;;;5020462;28;20359;-78
2021/11/11 00:10:17;;;;;;;20.98;13.68;;;;;;;;;;5025079;28;20194;-78
2021/11/11 00:12:43;;;;;;;23.23;14.27;;;;;;;;;;5018727;28;20224;-78
2021/11/11 00:15:10;;;;;;;24.17;15.32;;;;;;;;;;5017900;28;20179;-78
2021/11/11 00:17:37;;;;;;;19.45;14.32;;;;;;;;;;5018275;28;20183;-78
2021/11/11 00:20:04;;;;;;;22.25;12.75;;;;;;;;;;5020013;28;20190;-78
2021/11/11 00:22:30;;;;;;;24.50;12.70;;;;;;;;;;5022267;28;20700;-78
2021/11/11 00:24:56;;;;;;;17.05;12.55;;;;;;;;;;5022976;28;20182;-79
2021/11/11 00:27:22;;;;;;;25.92;12.80;;;;;;;;;;5019678;28;20234;-79
2021/11/11 00:29:48;;;;;;;20.02;12.30;;;;;;;;;;5021670;28;20182;-79
2021/11/11 00:32:14;;;;;;;18.13;12.38;;;;;;;;;;5036888;28;20201;-79
2021/11/11 00:34:40;;;;;;;18.60;12.27;;;;;;;;;;5019990;28;20206;-79
2021/11/11 00:37:07;;;;;;;23.65;14.85;;;;;;;;;;5025014;28;20178;-79
2021/11/11 00:39:33;;;;;;;15.75;11.27;;;;;;;;;;5023962;28;20200;-78
2021/11/11 00:41:59;;;;;;;19.48;12.52;;;;;;;;;;5021943;28;20181;-79
2021/11/11 00:44:25;;;;;;;23.17;13.18;;;;;;;;;;5019151;28;20190;-79
2021/11/11 00:46:51;;;;;;;18.40;12.32;;;;;;;;;;5010655;28;20217;-79
2021/11/11 00:49:17;;;;;;;22.30;13.48;;;;;;;;;;5019683;28;20221;-79
2021/11/11 00:51:43;;;;;;;25.10;13.80;;;;;;;;;;5020902;28;20186;-79
2021/11/11 00:54:10;;;;;;;17.40;12.75;;;;;;;;;;5017892;28;20261;-79
2021/11/11 00:56:36;;;;;;;19.48;11.73;;;;;;;;;;5022586;28;20258;-79
2021/11/11 00:59:03;;;;;;;16.15;11.68;;;;;;;;;;5019966;28;20342;-79
2021/11/11 01:01:30;;;;;;;22.15;12.18;;;;;;;;;;5017824;28;20333;-79
2021/11/11 01:03:56;;;;;;;19.98;12.55;;;;;;;;;;5023911;28;20198;-79
2021/11/11 01:06:23;;;;;;;18.20;12.70;;;;;;;;;;5018303;28;20182;-79
2021/11/11 01:08:49;;;;;;;17.70;11.13;;;;;;;;;;5024043;28;20254;-78
2021/11/11 01:11:17;;;;;;;18.45;12.52;;;;;;;;;;5020464;28;20194;-78
2021/11/11 01:13:43;;;;;;;25.10;13.30;;;;;;;;;;5019308;28;20206;-79
2021/11/11 01:16:09;;;;;;;16.17;12.40;;;;;;;;;;5019154;28;20387;-79
2021/11/11 01:18:35;;;;;;;17.10;13.02;;;;;;;;;;5033466;28;20317;-79
2021/11/11 01:21:01;;;;;;;20.40;13.27;;;;;;;;;;5019807;28;20186;-79
2021/11/11 01:23:27;;;;;;;18.55;11.43;;;;;;;;;;5020016;28;20250;-79
2021/11/11 01:25:53;;;;;;;16.77;12.10;;;;;;;;;;5018065;28;20202;-79
2021/11/11 01:28:19;;;;;;;17.15;11.20;;;;;;;;;;5018307;28;20392;-79
2021/11/11 01:30:45;;;;;;;18.15;11.82;;;;;;;;;;5033375;28;20213;-79
2021/11/11 01:33:12;;;;;;;15.60;10.70;;;;;;;;;;5014455;28;20221;-79
2021/11/11 01:35:38;;;;;;;19.90;11.70;;;;;;;;;;5024767;28;20213;-79
2021/11/11 01:38:04;;;;;;;16.30;11.20;;;;;;;;;;5023188;28;20182;-79
2021/11/11 01:40:31;;;;;;;15.75;11.38;;;;;;;;;;5016920;28;20186;-79
2021/11/11 01:43:00;;;;;;;18.00;12.85;;;;;;;;;;5034987;28;20194;-79
2021/11/11 01:45:35;;;;;;;17.80;12.77;;;;;;;;;;5020775;28;20202;-79
2021/11/11 01:48:02;;;;;;;18.90;11.77;;;;;;;;;;5039675;28;20297;-79
2021/11/11 01:50:28;;;;;;;18.70;11.80;;;;;;;;;;5022062;28;20236;-79
2021/11/11 01:52:54;;;;;;;19.65;12.25;;;;;;;;;;5017906;28;20259;-79
2021/11/11 01:55:21;;;;;;;16.10;11.45;;;;;;;;;;5022155;28;20211;-79
2021/11/11 01:57:47;;;;;;;18.27;11.85;;;;;;;;;;5015615;28;20183;-79
2021/11/11 02:00:15;;;;;;;19.83;13.88;;;;;;;;;;5021812;28;20179;-79
2021/11/11 02:02:42;;;;;;;21.35;13.10;;;;;;;;;;5039193;28;20186;-79
2021/11/11 02:05:10;;;;;;;19.27;12.20;;;;;;;;;;5018843;28;20621;-79
2021/11/11 02:07:36;;;;;;;21.80;12.95;;;;;;;;;;5015935;28;20250;-79
2021/11/11 02:10:03;;;;;;;17.08;11.10;;;;;;;;;;5020760;28;20183;-79
2021/11/11 02:12:30;;;;;;;20.17;13.15;;;;;;;;;;5017570;28;20198;-79
2021/11/11 02:14:57;;;;;;;23.40;12.85;;;;;;;;;;5019496;28;20214;-79
2021/11/11 02:17:30;;;;;;;18.50;11.23;;;;;;;;;;5015977;28;20301;-79
2021/11/11 02:20:01;;;;;;;17.70;11.90;;;;;;;;;;5019323;28;20178;-79
2021/11/11 02:22:27;;;;;;;20.90;13.57;;;;;;;;;;5020811;28;20460;-79
2021/11/11 02:24:52;;;;;;;19.00;12.85;;;;;;;;;;5020316;28;20462;-79
2021/11/11 02:27:19;;;;;;;22.25;13.55;;;;;;;;;;5019237;28;20182;-79
2021/11/11 02:29:45;;;;;;;21.05;13.57;;;;;;;;;;5038997;28;20188;-79
2021/11/11 02:32:11;;;;;;;24.35;12.60;;;;;;;;;;5018815;28;20594;-79
2021/11/11 02:34:37;;;;;;;24.27;13.65;;;;;;;;;;5017702;28;20214;-79
2021/11/11 02:37:04;;;;;;;21.08;14.57;;;;;;;;;;5011802;28;20241;-79
2021/11/11 02:39:31;;;;;;;21.73;13.60;;;;;;;;;;5021625;28;20182;-79
2021/11/11 02:41:58;;;;;;;19.88;13.50;;;;;;;;;;5022347;28;20171;-79
2021/11/11 02:44:24;;;;;;;13.57;11.45;;;;;;;;;;5017197;28;20663;-79
2021/11/11 02:46:50;;;;;;;19.65;14.55;;;;;;;;;;5016119;28;20223;-79
2021/11/11 02:49:16;;;;;;;22.33;12.38;;;;;;;;;;5022141;28;20190;-79
2021/11/11 02:51:42;;;;;;;24.55;15.68;;;;;;;;;;5016992;28;20217;-79
2021/11/11 02:54:08;;;;;;;19.42;13.57;;;;;;;;;;5013179;28;20211;-80
2021/11/11 02:56:34;;;;;;;25.02;14.65;;;;;;;;;;5038090;28;20178;-79
2021/11/11 02:59:00;;;;;;;21.38;13.70;;;;;;;;;;5018633;28;20178;-79
2021/11/11 03:01:26;;;;;;;21.35;13.20;;;;;;;;;;5020021;28;20187;-79
2021/11/11 03:03:52;;;;;;;23.85;13.45;;;;;;;;;;5009043;28;20670;-79
2021/11/11 03:06:18;;;;;;;23.17;14.07;;;;;;;;;;5019166;28;20178;-79
2021/11/11 03:08:44;;;;;;;22.38;14.55;;;;;;;;;;5010766;28;20206;-79
2021/11/11 03:11:10;;;;;;;21.77;13.95;;;;;;;;;;5036200;28;20192;-79
2021/11/11 03:13:36;;;;;;;22.02;13.75;;;;;;;;;;5022304;28;20206;-79
2021/11/11 03:16:02;;;;;;;19.27;13.95;;;;;;;;;;5020991;28;20190;-79
2021/11/11 03:18:28;;;;;;;22.08;13.73;;;;;;;;;;5024879;28;20198;-79
2021/11/11 03:20:54;;;;;;;23.15;15.30;;;;;;;;;;5026026;28;20194;-79
2021/11/11 03:23:21;;;;;;;27.65;15.73;;;;;;;;;;5016831;28;20186;-79
2021/11/11 03:25:47;;;;;;;23.50;16.00;;;;;;;;;;5018161;28;20273;-79
2021/11/11 03:28:13;;;;;;;21.60;14.52;;;;;;;;;;5021737;28;20186;-79
2021/11/11 03:30:39;;;;;;;21.17;15.13;;;;;;;;;;5021102;28;20186;-79
2021/11/11 03:33:06;;;;;;;24.95;16.33;;;;;;;;;;5020763;28;20205;-79
2021/11/11 03:35:32;;;;;;;19.90;14.70;;;;;;;;;;5020906;28;20182;-79
2021/11/11 03:37:59;;;;;;;24.65;17.33;;;;;;;;;;5020597;28;20179;-79
2021/11/11 03:40:27;;;;;;;21.52;15.10;;;;;;;;;;5023592;28;20220;-79
2021/11/11 03:42:54;;;;;;;22.30;14.75;;;;;;;;;;5019036;28;20205;-78
2021/11/11 03:45:20;;;;;;;25.13;15.32;;;;;;;;;;5014816;28;20181;-79
2021/11/11 03:47:50;;;;;;;24.70;15.45;;;;;;;;;;5026780;28;20313;-79
2021/11/11 03:50:17;;;;;;;20.58;15.23;;;;;;;;;;5019556;28;20233;-79
2021/11/11 03:52:43;;;;;;;24.27;14.75;;;;;;;;;;5018080;28;20687;-79
2021/11/11 03:55:10;;;;;;;21.85;15.45;;;;;;;;;;5024634;28;20257;-79
2021/11/11 03:57:36;;;;;;;24.63;16.75;;;;;;;;;;5020337;28;20202;-78
2021/11/11 04:00:04;;;;;;;25.17;15.38;;;;;;;;;;5021269;28;20182;-79
2021/11/11 04:02:30;;;;;;;26.05;16.15;;;;;;;;;;5021480;28;20187;-78
2021/11/11 04:04:56;;;;;;;26.55;16.00;;;;;;;;;;5020038;28;20581;-79
2021/11/11 04:07:22;;;;;;;24.70;17.10;;;;;;;;;;5021454;28;20186;-79
2021/11/11 04:09:48;;;;;;;25.40;16.90;;;;;;;;;;5021584;28;20185;-78
2021/11/11 04:12:14;;;;;;;23.23;14.60;;;;;;;;;;5019753;28;20189;-78
2021/11/11 04:14:40;;;;;;;23.55;15.20;;;;;;;;;;5041044;28;20261;-78
2021/11/11 04:17:06;;;;;;;29.08;15.93;;;;;;;;;;5019781;28;20190;-78
2021/11/11 04:19:32;;;;;;;31.33;16.80;;;;;;;;;;5018141;28;20543;-79
2021/11/11 04:21:58;;;;;;;21.02;14.98;;;;;;;;;;5036099;28;20187;-79
2021/11/11 04:24:24;;;;;;;26.65;17.70;;;;;;;;;;5017794;28;20186;-79
2021/11/11 04:26:57;;;;;;;30.00;18.40;;;;;;;;;;5025089;28;20189;-79
2021/11/11 04:29:27;;;;;;;23.80;17.25;;;;;;;;;;5021367;28;20222;-79
2021/11/11 04:31:57;;;;;;;28.98;19.02;;;;;;;;;;5020331;28;20183;-79
2021/11/11 04:34:24;;;;;;;27.42;16.13;;;;;;;;;;5022746;28;20198;-78
2021/11/11 05:03:36;;;;;;;22.90;14.98;;;;;;;;;;4994911;28;20194;-79
2021/11/11 05:06:03;;;;;;;19.88;14.68;;;;;;;;;;5002096;28;20179;-78
2021/11/11 05:08:29;;;;;;;29.20;17.23;;;;;;;;;;4985510;28;20684;-78
2021/11/11 05:10:56;;;;;;;25.70;15.35;;;;;;;;;;4989289;28;20191;-78
2021/11/11 05:13:22;;;;;;;21.80;15.10;;;;;;;;;;4983721;28;20219;-79
2021/11/11 05:15:48;;;;;;;26.95;16.48;;;;;;;;;;4998266;28;20175;-79
2021/11/11 05:18:14;;;;;;;24.30;16.45;;;;;;;;;;5001575;28;20226;-78
2021/11/11 05:20:40;;;;;;;25.27;17.05;;;;;;;;;;5000371;28;20871;-79
2021/11/11 05:23:06;;;;;;;26.25;16.25;;;;;;;;;;4983075;28;20179;-79
2021/11/11 05:25:32;;;;;;;21.80;14.50;;;;;;;;;;4982159;28;20187;-79
2021/11/11 05:27:59;;;;;;;23.70;15.82;;;;;;;;;;5023744;28;20190;-78
2021/11/11 05:30:27;;;;;;;23.13;15.52;;;;;;;;;;5016950;28;20278;-78
2021/11/11 05:32:53;;;;;;;22.40;15.85;;;;;;;;;;5020002;28;20163;-79
2021/11/11 05:35:19;;;;;;;23.60;16.05;;;;;;;;;;5017695;28;20186;-79
2021/11/11 05:37:46;;;;;;;34.05;17.48;;;;;;;;;;5019857;28;20187;-78
2021/11/11 05:40:13;;;;;;;25.13;16.40;;;;;;;;;;5018901;28;20171;-78
2021/11/11 05:42:39;;;;;;;28.23;16.58;;;;;;;;;;5033670;28;20182;-78
2021/11/11 05:45:06;;;;;;;26.08;16.42;;;;;;;;;;5018154;28;20186;-79
2021/11/11 05:47:32;;;;;;;20.60;15.07;;;;;;;;;;5018996;28;20222;-79
2021/11/11 05:49:58;;;;;;;30.67;17.05;;;;;;;;;;5018201;28;20258;-79
2021/11/11 05:52:24;;;;;;;25.20;16.80;;;;;;;;;;5017105;28;20211;-79
2021/11/11 05:54:51;;;;;;;24.13;17.60;;;;;;;;;;5033920;28;20206;-79
2021/11/11 05:57:17;;;;;;;25.00;17.85;;;;;;;;;;5017359;28;20179;-79
2021/11/11 05:59:43;;;;;;;28.90;16.40;;;;;;;;;;5019394;28;20210;-79
2021/11/11 06:02:11;;;;;;;23.50;16.73;;;;;;;;;;5017897;28;20198;-79
2021/11/11 06:04:38;;;;;;;22.30;14.82;;;;;;;;;;5015260;28;20210;-79
2021/11/11 06:07:04;;;;;;;22.58;15.77;;;;;;;;;;5022066;28;20205;-78
2021/11/11 06:09:30;;;;;;;27.02;16.00;;;;;;;;;;5016738;28;20277;-78
2021/11/11 06:11:56;;;;;;;26.13;16.52;;;;;;;;;;5023247;28;20182;-78
2021/11/11 06:14:22;;;;;;;24.40;17.13;;;;;;;;;;5018890;28;20213;-79
2021/11/11 06:16:48;;;;;;;29.75;17.38;;;;;;;;;;5015097;28;20191;-79
2021/11/11 06:19:14;;;;;;;25.95;17.50;;;;;;;;;;5021147;28;20537;-79
2021/11/11 06:21:41;;;;;;;27.08;16.90;;;;;;;;;;5020842;28;20193;-79
2021/11/11 06:24:07;;;;;;;31.15;17.35;;;;;;;;;;5017931;28;20190;-79
2021/11/11 06:26:34;;;;;;;29.13;18.38;;;;;;;;;;5017233;28;20178;-79
2021/11/11 06:29:00;;;;;;;26.80;19.42;;;;;;;;;;5023051;28;20265;-79
2021/11/11 06:31:26;;;;;;;27.65;17.42;;;;;;;;;;5016481;28;20194;-79
2021/11/11 06:33:52;;;;;;;30.70;18.25;;;;;;;;;;5020712;28;20229;-79
2021/11/11 06:36:18;;;;;;;23.77;16.85;;;;;;;;;;5021963;28;20263;-79
2021/11/11 06:38:45;;;;;;;31.17;17.45;;;;;;;;;;5023999;28;20201;-79
2021/11/11 06:41:11;;;;;;;33.50;19.73;;;;;;;;;;5020753;28;20194;-79
2021/11/11 06:43:37;;;;;;;28.40;18.35;;;;;;;;;;5015528;28;20187;-79
2021/11/11 06:46:03;;;;;;;36.25;20.10;;;;;;;;;;5018900;28;20193;-79
2021/11/11 06:48:30;;;;;;;34.53;20.02;;;;;;;;;;5016118;28;20187;-79
2021/11/11 06:50:56;;;;;;;38.90;19.63;;;;;;;;;;5018936;28;20640;-79
2021/11/11 06:53:22;;;;;;;34.35;20.45;;;;;;;;;;5018558;28;20273;-79
2021/11/11 06:55:48;;;;;;;33.30;19.90;;;;;;;;;;5019486;28;20202;-79
2021/11/11 06:58:15;;;;;;;34.33;20.85;;;;;;;;;;5024132;28;20201;-79
2021/11/11 07:00:42;;;;;;;32.25;19.90;;;;;;;;;;5021960;28;20189;-79
2021/11/11 07:03:08;;;;;;;34.88;19.77;;;;;;;;;;5023934;28;20182;-79
2021/11/11 07:05:34;;;;;;;38.55;20.67;;;;;;;;;;5021181;28;20281;-80
2021/11/11 07:08:00;;;;;;;38.90;21.23;;;;;;;;;;5020683;28;20243;-80
2021/11/11 07:10:26;;;;;;;32.95;21.08;;;;;;;;;;5024360;28;20190;-80
2021/11/11 07:12:52;;;;;;;35.08;20.52;;;;;;;;;;5018796;28;20179;-80
2021/11/11 07:15:18;;;;;;;47.72;23.27;;;;;;;;;;5020228;28;20190;-79
2021/11/11 07:17:45;;;;;;;35.75;21.08;;;;;;;;;;5024986;28;20628;-79
2021/11/11 07:20:12;;;;;;;46.55;22.25;;;;;;;;;;5022293;28;20182;-79
2021/11/11 07:22:39;;;;;;;30.92;18.42;;;;;;;;;;5022004;28;20187;-79
2021/11/11 07:25:06;;;;;;;37.47;21.05;;;;;;;;;;5024816;28;20232;-79
2021/11/11 07:27:34;;;;;;;38.03;21.70;;;;;;;;;;5019517;28;20254;-79
2021/11/11 07:30:01;;;;;;;39.63;23.08;;;;;;;;;;5026627;28;20241;-79
2021/11/11 07:32:27;;;;;;;37.05;23.67;;;;;;;;;;5021168;28;20222;-79
2021/11/11 07:34:53;;;;;;;40.58;24.02;;;;;;;;;;5023749;28;20655;-80
2021/11/11 07:37:19;;;;;;;40.60;22.98;;;;;;;;;;5023661;28;20195;-80
2021/11/11 07:39:45;;;;;;;39.10;22.08;;;;;;;;;;5021636;28;20193;-80
2021/11/11 07:42:11;;;;;;;35.70;22.02;;;;;;;;;;5021563;28;20171;-80
2021/11/11 07:44:37;;;;;;;33.65;21.52;;;;;;;;;;5024473;28;20182;-80
2021/11/11 07:47:03;;;;;;;37.50;21.23;;;;;;;;;;5021575;28;20222;-80
2021/11/11 07:49:30;;;;;;;37.22;21.35;;;;;;;;;;5021780;28;20182;-80
2021/11/11 07:51:56;;;;;;;40.65;23.42;;;;;;;;;;5022663;28;20197;-80
2021/11/11 07:54:22;;;;;;;36.22;21.70;;;;;;;;;;5025610;28;20214;-80
2021/11/11 07:56:48;;;;;;;31.67;21.70;;;;;;;;;;5020348;28;20174;-80
2021/11/11 07:59:14;;;;;;;34.47;21.80;;;;;;;;;;5021657;28;20553;-80
2021/11/11 08:01:41;;;;;;;36.05;22.05;;;;;;;;;;5020670;28;20183;-80
2021/11/11 08:04:07;;;;;;;42.95;24.27;;;;;;;;;;5022272;28;20182;-80
2021/11/11 08:06:32;;;;;;;37.17;21.90;;;;;;;;;;5017847;28;20240;-80
2021/11/11 08:08:59;;;;;;;40.45;23.17;;;;;;;;;;5023977;28;20570;-80
2021/11/11 08:11:25;;;;;;;35.90;23.38;;;;;;;;;;5023773;28;20186;-80
2021/11/11 08:13:51;;;;;;;37.53;23.00;;;;;;;;;;5016405;28;20795;-80
2021/11/11 08:16:17;;;;;;;40.70;21.88;;;;;;;;;;5017527;28;20191;-81
2021/11/11 08:18:43;;;;;;;34.28;22.33;;;;;;;;;;5018971;28;20186;-81
2021/11/11 08:21:09;;;;;;;33.78;22.45;;;;;;;;;;5020251;28;20171;-81
2021/11/11 08:23:35;;;;;;;34.40;21.55;;;;;;;;;;5023269;28;20187;-80
2021/11/11 08:26:04;;;;;;;30.80;20.33;;;;;;;;;;5018881;28;20205;-81
2021/11/11 08:28:31;;;;;;;35.08;21.40;;;;;;;;;;5017264;28;20182;-80
2021/11/11 08:30:57;;;;;;;31.42;20.52;;;;;;;;;;5023191;28;20189;-81
2021/11/11 08:33:23;;;;;;;31.45;21.65;;;;;;;;;;5023102;28;20631;-80
2021/11/11 08:35:49;;;;;;;29.55;20.40;;;;;;;;;;5039580;28;20205;-81
2021/11/11 08:38:16;;;;;;;33.33;19.75;;;;;;;;;;5016455;28;20667;-81
2021/11/11 08:40:43;;;;;;;31.20;21.50;;;;;;;;;;5019887;28;20193;-81
2021/11/11 08:43:09;;;;;;;32.78;23.10;;;;;;;;;;5020729;28;20342;-81
2021/11/11 08:45:35;;;;;;;37.47;24.27;;;;;;;;;;5019638;28;20190;-81
2021/11/11 08:48:01;;;;;;;37.03;22.77;;;;;;;;;;4976705;28;1294036;-81
2021/11/11 08:50:30;;;;;;;31.85;22.05;;;;;;;;;;5019661;28;20217;-82
2021/11/11 08:52:57;;;;;;;32.55;21.67;;;;;;;;;;5018482;28;20246;-81
2021/11/11 08:55:25;;;;;;;32.28;22.42;;;;;;;;;;5018643;28;20234;-82
2021/11/11 08:57:51;;;;;;;41.45;24.10;;;;;;;;;;5033851;28;20240;-81
2021/11/11 09:00:18;;;;;;;36.42;25.10;;;;;;;;;;5022851;28;20647;-81
2021/11/11 09:02:46;;;;;;;40.90;24.65;;;;;;;;;;5019601;28;20185;-82
2021/11/11 09:05:12;;;;;;;35.42;25.30;;;;;;;;;;5020671;28;20182;-82
2021/11/11 09:07:39;;;;;;;36.97;23.23;;;;;;;;;;5016449;28;20796;-82
2021/11/11 09:10:16;;;;;;;35.35;25.02;;;;;;;;;;5022667;28;20178;-82
2021/11/11 09:12:42;;;;;;;37.00;24.67;;;;;;;;;;5034275;28;20190;-82
2021/11/11 09:15:10;;;;;;;40.72;24.50;;;;;;;;;;5013489;28;20262;-82
2021/11/11 09:17:36;;;;;;;39.72;27.20;;;;;;;;;;5017986;28;20179;-83
2021/11/11 09:20:05;;;;;;;36.63;26.30;;;;;;;;;;5019497;28;20644;-82
2021/11/11 09:22:34;;;;;;;37.53;23.90;;;;;;;;;;5016774;28;20214;-82
2021/11/11 09:25:00;;;;;;;41.08;27.67;;;;;;;;;;5021408;28;20682;-82
2021/11/11 09:27:26;;;;;;;37.33;25.75;;;;;;;;;;5016947;28;20197;-81
2021/11/11 09:29:53;;;;;;;35.22;26.83;;;;;;;;;;5040019;28;20182;-81
2021/11/11 09:32:20;;;;;;;39.25;26.00;;;;;;;;;;5018128;28;20186;-83
2021/11/11 09:34:46;;;;;;;40.88;26.60;;;;;;;;;;5034219;28;20800;-82
2021/11/11 09:37:12;;;;;;;42.58;27.08;;;;;;;;;;5019031;28;20182;-82
2021/11/11 09:39:38;;;;;;;42.42;26.30;;;;;;;;;;5020942;28;20178;-82
2021/11/11 09:42:04;;;;;;;43.30;29.17;;;;;;;;;;5023231;28;20178;-82
2021/11/11 09:44:30;;;;;;;37.58;28.27;;;;;;;;;;5018929;28;20193;-81
2021/11/11 09:46:57;;;;;;;40.42;26.48;;;;;;;;;;5018731;28;20222;-81
2021/11/11 09:49:23;;;;;;;40.80;29.55;;;;;;;;;;5018139;28;20237;-82
2021/11/11 09:51:49;;;;;;;41.92;28.02;;;;;;;;;;5021180;28;20273;-82
2021/11/11 09:59:29;;;;;;;45.95;30.70;;;;;;;;;;5017855;28;20204;-81
2021/11/11 10:01:55;;;;;;;42.78;31.45;;;;;;;;;;5023278;28;20182;-82
2021/11/11 10:04:21;;;;;;;42.05;28.85;;;;;;;;;;5021820;28;20185;-82
2021/11/11 10:06:48;;;;;;;43.47;29.95;;;;;;;;;;5015478;28;20187;-82
2021/11/11 10:09:15;;;;;;;44.10;30.15;;;;;;;;;;5023055;28;20204;-82
2021/11/11 10:11:49;;;;;;;41.92;29.90;;;;;;;;;;5021076;28;20174;-81
2021/11/11 10:14:16;;;;;;;44.75;31.40;;;;;;;;;;5018573;28;20210;-81
2021/11/11 10:16:42;;;;;;;41.67;28.77;;;;;;;;;;5017454;28;20184;-81
2021/11/11 10:19:08;;;;;;;47.37;33.67;;;;;;;;;;5022446;28;20178;-81
2021/11/11 10:21:56;;;;;;;45.13;32.45;;;;;;;;;;5016013;28;20437;-82
2021/11/11 10:24:22;;;;;;;46.53;31.00;;;;;;;;;;5019409;28;20243;-81
2021/11/11 10:26:55;;;;;;;43.55;29.58;;;;;;;;;;5016101;28;20512;-81
2021/11/11 10:29:40;;;;;;;42.35;29.58;;;;;;;;;;5019628;28;20246;-80
2021/11/11 10:32:08;;;;;;;45.55;33.00;;;;;;;;;;5028651;28;20448;-81
2021/11/11 10:34:45;;;;;;;46.67;32.20;;;;;;;;;;5017039;28;20266;-81
2021/11/11 10:37:11;;;;;;;51.50;31.85;;;;;;;;;;5021964;28;20639;-81
2021/11/11 10:39:41;;;;;;;41.38;31.00;;;;;;;;;;5035637;28;20183;-81
2021/11/11 10:42:16;;;;;;;37.53;28.15;;;;;;;;;;5035219;28;20580;-81
2021/11/11 10:44:42;;;;;;;43.05;31.25;;;;;;;;;;5020394;28;20184;-81
2021/11/11 10:47:10;;;;;;;44.78;31.23;;;;;;;;;;5015863;28;20230;-81
2021/11/11 10:49:41;;;;;;;45.55;30.45;;;;;;;;;;5015108;28;20213;-81
2021/11/11 10:52:24;;;;;;;41.50;31.75;;;;;;;;;;5019595;28;20196;-83
2021/11/11 10:55:05;;;;;;;54.17;34.88;;;;;;;;;;5017784;28;20198;-82
2021/11/11 10:57:51;;;;;;;49.75;32.92;;;;;;;;;;5019220;28;20193;-82
2021/11/11 11:00:17;;;;;;;48.28;32.58;;;;;;;;;;5007708;28;20194;-81
2021/11/11 11:02:53;;;;;;;46.10;31.63;;;;;;;;;;5019463;28;20174;-81
2021/11/11 11:05:22;;;;;;;42.58;30.58;;;;;;;;;;5016913;28;20436;-82
2021/11/11 11:07:48;;;;;;;45.08;31.20;;;;;;;;;;5019372;28;20175;-81
2021/11/11 11:10:17;;;;;;;40.97;29.23;;;;;;;;;;5021668;28;20186;-81
2021/11/11 11:12:44;;;;;;;37.72;29.73;;;;;;;;;;5018340;28;20276;-81
2021/11/11 11:15:10;;;;;;;38.65;27.73;;;;;;;;;;5017304;28;20198;-81
2021/11/11 11:17:37;;;;;;;34.05;24.70;;;;;;;;;;5016007;28;20238;-81
2021/11/11 11:20:21;;;;;;;38.85;25.85;;;;;;;;;;5019472;28;20183;-81
2021/11/11 11:22:47;;;;;;;37.28;23.65;;;;;;;;;;5020050;28;20245;-81
2021/11/11 11:25:13;;;;;;;34.08;21.70;;;;;;;;;;5016061;28;20191;-81
2021/11/11 11:27:39;;;;;;;29.75;19.20;;;;;;;;;;5022084;28;20182;-79
2021/11/11 11:30:11;;;;;;;28.67;17.25;;;;;;;;;;5017287;28;20171;-80
2021/11/11 11:32:41;;;;;;;25.90;17.75;;;;;;;;;;5018920;28;20273;-80
2021/11/11 11:35:08;;;;;;;29.55;19.50;;;;;;;;;;5019979;28;20198;-80
2021/11/11 11:37:35;;;;;;;27.67;18.88;;;;;;;;;;5014536;28;20548;-80
2021/11/11 11:40:04;;;;;;;30.00;21.45;;;;;;;;;;5036135;28;20186;-80
2021/11/11 11:42:35;;;;;;;25.20;18.65;;;;;;;;;;5020702;28;20182;-81
2021/11/11 11:45:12;;;;;;;23.83;18.70;;;;;;;;;;5021461;28;20178;-81
2021/11/11 11:47:58;;;;;;;28.23;18.17;;;;;;;;;;5020201;28;20286;-81
2021/11/11 11:50:29;;;;;;;23.52;18.50;;;;;;;;;;5021753;28;20198;-81
2021/11/11 11:53:00;;;;;;;23.70;16.85;;;;;;;;;;5020984;28;20559;-81
2021/11/11 11:55:35;;;;;;;24.55;18.08;;;;;;;;;;5023715;28;20197;-81
2021/11/11 12:34:29;;;;;;;28.15;22.10;;;;;;;;;;5019348;28;20189;-80
2021/11/11 12:38:39;;;;;;;29.27;23.20;;;;;;;;;;5019337;28;20709;-80
2021/11/11 12:41:07;;;;;;;27.77;20.30;;;;;;;;;;5019896;28;20179;-81
2021/11/11 12:43:33;;;;;;;26.60;19.80;;;;;;;;;;5017859;28;20189;-80
2021/11/11 12:46:00;;;;;;;32.25;22.05;;;;;;;;;;5021842;28;20320;-80
2021/11/11 12:48:26;;;;;;;28.98;23.70;;;;;;;;;;5018913;28;20238;-80
2021/11/11 12:51:03;;;;;;;23.73;20.35;;;;;;;;;;5019224;28;20183;-80
2021/11/11 12:53:29;;;;;;;29.15;21.60;;;;;;;;;;5019541;28;20217;-81
2021/11/11 12:55:58;;;;;;;19.87;17.80;;;;;;;;;;5020100;28;20179;-80
2021/11/11 12:58:34;;;;;;;26.95;19.63;;;;;;;;;;5019089;28;20800;-80
2021/11/11 13:01:05;;;;;;;23.83;17.98;;;;;;;;;;5022256;28;20190;-80
2021/11/11 13:03:48;;;;;;;27.52;19.27;;;;;;;;;;5019301;28;20249;-80
2021/11/11 13:06:32;;;;;;;28.33;20.85;;;;;;;;;;5020811;28;20186;-81
2021/11/11 13:08:59;;;;;;;23.95;20.92;;;;;;;;;;5020085;28;20188;-81
2021/11/11 13:11:29;;;;;;;28.00;20.73;;;;;;;;;;5019374;28;20189;-81
2021/11/11 13:14:24;;;;;;;24.80;20.17;;;;;;;;;;5017920;28;20199;-81
2021/11/11 13:16:59;;;;;;;28.52;19.05;;;;;;;;;;5017726;28;20195;-80
2021/11/11 13:19:37;;;;;;;27.15;21.67;;;;;;;;;;5012612;28;20213;-80
2021/11/11 13:22:07;;;;;;;25.10;18.85;;;;;;;;;;5022464;28;20240;-80
2021/11/11 13:24:54;;;;;;;21.33;17.55;;;;;;;;;;5018961;28;20178;-81
2021/11/11 13:59:11;;;;;;;24.25;17.77;;;;;;;;;;5018190;28;20221;-81
2021/11/11 14:02:14;;;;;;;30.10;17.48;;;;;;;;;;5019807;28;20275;-81
2021/11/11 16:02:02;;;;;;;18.45;13.05;;;;;;;;;;4985607;28;20187;-81
2021/11/11 16:19:37;;;;;;;19.70;14.13;;;;;;;;;;4965025;28;20192;-81
2021/11/11 16:24:04;;;;;;;21.60;13.00;;;;;;;;;;4985765;28;20203;-81
2021/11/11 16:26:30;;;;;;;18.92;14.02;;;;;;;;;;5033849;28;20198;-81
2021/11/11 16:29:01;;;;;;;26.27;17.70;;;;;;;;;;5018053;28;20214;-80
2021/11/11 16:31:27;;;;;;;30.58;20.00;;;;;;;;;;5019500;28;20691;-80
2021/11/11 16:33:54;;;;;;;23.90;17.58;;;;;;;;;;5024179;28;20734;-81
2021/11/11 16:36:20;;;;;;;25.10;16.55;;;;;;;;;;5019725;28;20258;-80
2021/11/11 16:38:47;;;;;;;24.85;17.70;;;;;;;;;;5020310;28;20222;-81
2021/11/11 16:41:14;;;;;;;34.72;21.42;;;;;;;;;;5019379;28;20177;-81
2021/11/11 16:43:40;;;;;;;20.27;14.07;;;;;;;;;;5020804;28;20191;-81
2021/11/11 16:46:07;;;;;;;22.08;15.50;;;;;;;;;;5018377;28;20183;-81
2021/11/11 16:48:35;;;;;;;27.10;16.30;;;;;;;;;;5018344;28;20221;-81
2021/11/11 16:51:02;;;;;;;26.48;17.95;;;;;;;;;;5020929;28;20170;-81
2021/11/11 16:53:29;;;;;;;27.13;17.15;;;;;;;;;;5020813;28;20202;-81
2021/11/11 16:55:55;;;;;;;26.08;18.33;;;;;;;;;;5019419;28;20275;-80
2021/11/11 16:58:22;;;;;;;23.48;17.23;;;;;;;;;;5019242;28;20205;-81
2021/11/11 17:00:47;;;;;;;20.77;15.07;;;;;;;;;;5034410;28;20186;-80
2021/11/11 17:03:14;;;;;;;24.85;15.98;;;;;;;;;;5015595;28;20194;-81
2021/11/11 17:05:41;;;;;;;31.00;18.17;;;;;;;;;;5040049;28;20170;-81
2021/11/11 17:08:07;;;;;;;25.27;16.65;;;;;;;;;;5019285;28;20183;-81
2021/11/11 17:10:33;;;;;;;26.63;19.05;;;;;;;;;;5017166;28;20215;-80
2021/11/11 17:12:59;;;;;;;34.92;22.48;;;;;;;;;;5034528;28;20556;-81
2021/11/11 17:15:28;;;;;;;34.30;20.70;;;;;;;;;;5017088;28;20203;-80
2021/11/11 17:17:54;;;;;;;45.13;29.15;;;;;;;;;;5024341;28;20426;-80
2021/11/11 17:20:22;;;;;;;41.78;32.60;;;;;;;;;;5021537;28;20255;-80
2021/11/11 17:22:52;;;;;;;49.25;34.95;;;;;;;;;;5019174;28;20190;-80
2021/11/11 17:28:05;;;;;;;39.70;25.55;;;;;;;;;;5021243;28;20194;-80
2021/11/11 17:30:32;;;;;;;34.33;25.05;;;;;;;;;;5018612;28;20212;-81
2021/11/11 17:32:58;;;;;;;38.70;28.30;;;;;;;;;;5020534;28;20182;-81
2021/11/11 17:35:24;;;;;;;33.67;23.70;;;;;;;;;;5019788;28;20213;-80
2021/11/11 17:37:51;;;;;;;29.42;22.63;;;;;;;;;;5016229;28;20187;-81
2021/11/11 17:40:18;;;;;;;31.02;21.80;;;;;;;;;;5021306;28;20186;-81
2021/11/11 17:42:45;;;;;;;33.85;25.33;;;;;;;;;;5034110;28;20178;-81
2021/11/11 17:45:13;;;;;;;31.08;25.30;;;;;;;;;;5017783;28;20182;-80
2021/11/11 17:47:39;;;;;;;34.35;25.67;;;;;;;;;;5016711;28;20218;-80
2021/11/11 17:50:07;;;;;;;40.47;27.35;;;;;;;;;;5018046;28;20648;-81
2021/11/11 17:52:39;;;;;;;41.25;24.95;;;;;;;;;;5020944;28;20183;-80
2021/11/11 17:55:14;;;;;;;33.97;25.30;;;;;;;;;;5020051;28;20205;-80
2021/11/11 17:57:43;;;;;;;41.95;25.20;;;;;;;;;;5023671;28;20186;-80
2021/11/11 18:00:10;;;;;;;38.75;25.73;;;;;;;;;;5020350;28;20177;-79
2021/11/11 18:02:36;;;;;;;37.72;26.52;;;;;;;;;;5021960;28;20171;-79
2021/11/11 18:05:04;;;;;;;33.90;27.15;;;;;;;;;;5021816;28;20198;-79
2021/11/11 18:07:35;;;;;;;28.73;21.02;;;;;;;;;;5015004;28;20191;-79
2021/11/11 18:10:12;;;;;;;39.03;26.42;;;;;;;;;;5017266;28;20197;-79
2021/11/11 18:12:52;;;;;;;35.35;25.90;;;;;;;;;;5021480;28;20759;-80
2021/11/11 18:15:36;;;;;;;34.67;24.52;;;;;;;;;;5022751;28;20273;-79
2021/11/11 18:18:02;;;;;;;34.60;27.75;;;;;;;;;;5009565;28;20179;-79